Time;durP1;ratioP1;P1;durP2;ratioP2;P2;SDS_P1;SDS_P2;PMS_P1;PMS_P2;Temp;Humidity;BMP_temperature;BMP_pressure;BME280_temperature;BME280_humidity;BME280_pressure;Samples;Min_cycle;Max_cycle;Signal;HPM_P1;HPM_P2
2022/10/27 00:00:17;;;;;;;;;1.00;1.00;;;;;18.69;63.71;101406.41;5116276;27;44946;-72
2022/10/27 00:02:43;;;;;;;;;2.33;2.33;;;;;18.53;64.03;101381.13;5113869;27;48202;-71
2022/10/27 00:05:08;;;;;;;;;4.00;2.00;;;;;18.68;63.78;101408.25;5116767;27;47102;-72
2022/10/27 00:07:37;;;;;;;;;1.33;1.33;;;;;18.68;63.92;101415.47;5115968;27;45477;-72
2022/10/27 00:10:06;;;;;;;;;1.67;1.33;;;;;18.65;63.84;101410.94;5118462;27;45040;-72
2022/10/27 00:12:33;;;;;;;;;1.67;1.00;;;;;18.60;63.88;101405.50;5123941;27;45200;-72
2022/10/27 00:14:58;;;;;;;;;1.33;1.33;;;;;18.66;63.87;101417.22;5115094;27;45064;-72
2022/10/27 00:17:23;;;;;;;;;2.33;2.00;;;;;18.61;63.69;101417.25;5111430;27;45450;-72
2022/10/27 00:19:49;;;;;;;;;2.67;2.33;;;;;18.60;63.90;101424.44;5113833;27;59434;-71
2022/10/27 00:22:14;;;;;;;;;3.33;2.00;;;;;18.62;63.83;101424.44;5110820;27;54134;-72
2022/10/27 00:24:40;;;;;;;;;1.33;1.33;;;;;18.60;63.79;101424.44;5118891;27;45091;-72
2022/10/27 00:27:07;;;;;;;;;3.00;1.00;;;;;18.59;63.96;101428.06;5113541;27;45288;-72
2022/10/27 00:29:33;;;;;;;;;4.00;1.67;;;;;18.42;63.94;101394.59;5115091;27;45145;-72
2022/10/27 00:31:58;;;;;;;;;2.67;1.00;;;;;18.56;63.80;101422.63;5121095;27;45351;-72
2022/10/27 00:34:23;;;;;;;;;1.00;1.00;;;;;18.55;63.97;101419.91;5110437;27;45911;-71
2022/10/27 00:36:48;;;;;;;;;1.33;1.33;;;;;18.47;64.06;101406.34;5121066;27;59555;-72
2022/10/27 00:39:14;;;;;;;;;2.00;1.00;;;;;18.40;64.02;101396.41;5093930;27;45121;-72
2022/10/27 00:41:41;;;;;;;;;2.00;2.00;;;;;18.58;63.88;101418.13;5122350;27;49949;-72
2022/10/27 00:44:28;;;;;;;;;3.33;1.00;;;;;18.59;63.68;101414.53;5110133;27;45311;-71
2022/10/27 00:46:53;;;;;;;;;1.00;1.00;;;;;18.59;63.91;101408.19;5117325;27;45803;-71
2022/10/27 00:49:28;;;;;;;;;2.00;2.00;;;;;18.64;63.53;101414.53;5126107;27;45201;-71
2022/10/27 00:52:02;;;;;;;;;5.33;2.00;;;;;18.64;63.57;101416.34;5114459;27;44964;-71
2022/10/27 00:54:30;;;;;;;;;5.00;2.00;;;;;18.62;63.36;101420.84;5111555;27;45250;-71
2022/10/27 00:56:57;;;;;;;;;3.00;1.33;;;;;18.43;63.50;101388.31;5115821;27;45260;-72
2022/10/27 00:59:23;;;;;;;;;3.00;2.00;;;;;18.54;63.50;101413.56;5131525;27;45107;-72
2022/10/27 01:01:51;;;;;;;;;2.00;2.00;;;;;18.53;63.91;101406.38;5123321;27;45067;-71
2022/10/27 01:04:32;;;;;;;;;4.33;2.67;;;;;18.48;63.85;101401.81;5118133;27;45271;-72
2022/10/27 01:06:59;;;;;;;;;3.00;2.00;;;;;18.52;63.58;101406.38;5122115;27;45827;-71
2022/10/27 01:09:25;;;;;;;;;2.33;0.67;;;;;18.53;63.65;101409.09;5112760;27;44893;-70
2022/10/27 01:11:50;;;;;;;;;2.00;2.00;;;;;18.48;63.67;101396.41;5112527;27;45285;-70
2022/10/27 01:14:15;;;;;;;;;1.00;1.00;;;;;18.36;63.98;101389.16;5129183;27;45203;-70
2022/10/27 01:16:44;;;;;;;;;1.00;1.00;;;;;18.41;63.97;101398.19;5128551;27;45164;-72
2022/10/27 01:19:33;;;;;;;;;2.00;1.67;;;;;18.37;64.05;101399.97;5123329;27;45207;-71
2022/10/27 01:22:39;;;;;;;;;3.33;2.00;;;;;18.32;64.18;101390.94;5114505;27;45653;-72
2022/10/27 01:25:24;;;;;;;;;1.00;1.00;;;;;18.24;64.16;101393.59;5131043;27;45232;-70
2022/10/27 01:28:03;;;;;;;;;3.00;1.00;;;;;18.23;64.71;101391.81;5091121;27;47194;-70
2022/10/27 01:30:32;;;;;;;;;1.00;1.00;;;;;18.23;64.52;101386.41;5107360;27;45569;-72
2022/10/27 01:33:18;;;;;;;;;1.33;1.33;;;;;18.19;64.69;101380.97;5110111;27;45103;-69
2022/10/27 01:35:50;;;;;;;;;2.00;2.00;;;;;18.27;64.16;101387.31;5107337;27;45150;-71
2022/10/27 01:38:22;;;;;;;;;2.00;2.00;;;;;18.29;64.11;101382.81;5107534;27;45866;-71
2022/10/27 01:40:58;;;;;;;;;3.33;2.33;;;;;18.23;63.80;101369.25;5101599;27;45040;-71
2022/10/27 01:43:26;;;;;;;;;3.00;1.00;;;;;18.29;64.14;101385.50;5113934;27;45016;-71
2022/10/27 01:45:53;;;;;;;;;1.33;1.33;;;;;18.21;63.98;101380.09;5110620;27;45051;-71
2022/10/27 01:48:19;;;;;;;;;2.00;2.00;;;;;18.23;64.08;101386.41;5113044;27;45851;-71
2022/10/27 01:50:45;;;;;;;;;2.00;1.00;;;;;18.20;64.35;101380.09;5109506;27;45034;-71
2022/10/27 01:53:10;;;;;;;;;1.00;1.00;;;;;18.17;64.49;101380.06;5114236;27;45329;-71
2022/10/27 01:55:51;;;;;;;;;2.33;1.00;;;;;18.13;64.33;101384.56;5114252;27;45222;-71
2022/10/27 01:58:34;;;;;;;;;2.00;2.00;;;;;18.14;64.29;101380.03;5116276;27;45333;-71
2022/10/27 02:01:18;;;;;;;;;1.33;1.33;;;;;18.12;64.52;101376.44;5113112;27;45253;-71
2022/10/27 02:03:55;;;;;;;;;2.00;2.00;;;;;18.11;64.26;101386.31;5115364;27;45160;-71
2022/10/27 02:06:30;;;;;;;;;4.00;1.67;;;;;18.11;64.39;101386.31;5116038;27;45130;-71
2022/10/27 02:09:12;;;;;;;;;2.00;2.00;;;;;17.90;64.79;101357.38;5112965;27;46306;-71
2022/10/27 02:11:42;;;;;;;;;1.67;1.67;;;;;17.98;64.65;101376.34;5116134;27;45085;-72
2022/10/27 02:14:09;;;;;;;;;1.67;1.33;;;;;17.96;64.96;101359.22;5117902;27;45008;-71
2022/10/27 02:16:42;;;;;;;;;2.00;2.00;;;;;18.01;64.54;101363.72;5117026;27;44884;-71
2022/10/27 02:19:15;;;;;;;;;2.33;1.00;;;;;18.05;64.27;101365.56;5119294;27;45129;-71
2022/10/27 02:21:43;;;;;;;;;2.00;2.00;;;;;18.04;64.63;101362.84;5111246;27;44909;-71
2022/10/27 02:24:09;;;;;;;;;1.67;1.00;;;;;17.95;64.48;101352.91;5117337;27;45182;-71
2022/10/27 02:27:01;;;;;;;;;1.33;1.33;;;;;17.96;64.56;101345.69;5109508;27;45367;-71
2022/10/27 02:29:33;;;;;;;;;3.33;2.00;;;;;17.98;64.65;101352.00;5108268;27;45306;-71
2022/10/27 02:32:02;;;;;;;;;3.67;2.00;;;;;17.92;64.70;101341.16;5087068;27;45429;-71
2022/10/27 02:34:28;;;;;;;;;1.00;1.00;;;;;17.93;64.59;101351.06;5113002;27;45170;-71
2022/10/27 02:36:54;;;;;;;;;1.33;1.33;;;;;17.79;64.82;101323.94;5115366;27;45104;-71
2022/10/27 02:39:19;;;;;;;;;2.00;2.00;;;;;17.73;64.93;101316.69;5116933;27;45667;-71
2022/10/27 02:41:44;;;;;;;;;2.00;2.00;;;;;17.88;64.82;101342.03;5112098;27;45157;-71
2022/10/27 02:44:10;;;;;;;;;1.33;1.33;;;;;17.93;64.67;101346.56;5094412;27;51143;-71
2022/10/27 02:46:35;;;;;;;;;1.67;1.33;;;;;17.93;64.49;101334.84;5100672;27;50855;-71
2022/10/27 02:49:00;;;;;;;;;3.00;2.00;;;;;17.61;64.37;101276.97;5105621;27;50349;-71
2022/10/27 02:51:25;;;;;;;;;2.00;2.00;;;;;17.91;64.04;101344.75;5110499;27;55435;-71
2022/10/27 02:53:51;;;;;;;;;2.67;1.00;;;;;17.91;64.18;101345.66;5111347;27;59912;-71
2022/10/27 02:56:16;;;;;;;;;2.67;1.00;;;;;17.89;64.18;101347.47;5109826;27;45173;-71
2022/10/27 02:58:41;;;;;;;;;1.00;1.00;;;;;17.79;64.46;101326.66;5099562;27;63954;-71
2022/10/27 03:01:07;;;;;;;;;3.00;1.00;;;;;17.88;64.19;101345.63;5111217;27;45009;-71
2022/10/27 03:03:32;;;;;;;;;1.00;1.00;;;;;17.86;64.00;101342.00;5106582;27;47744;-71
2022/10/27 03:05:58;;;;;;;;;1.67;1.67;;;;;17.78;63.98;101327.53;5111879;27;45078;-71
2022/10/27 03:08:23;;;;;;;;;3.33;3.33;;;;;17.84;64.37;101344.69;5111723;27;45571;-71
2022/10/27 03:10:48;;;;;;;;;4.00;2.00;;;;;17.81;64.12;101346.47;5111207;27;44973;-71
2022/10/27 03:13:14;;;;;;;;;2.00;1.67;;;;;17.75;64.11;101341.94;5098414;27;49202;-71
2022/10/27 03:15:39;;;;;;;;;3.00;2.00;;;;;17.80;64.04;101345.56;5111276;27;45535;-71
2022/10/27 03:18:05;;;;;;;;;5.67;4.00;;;;;17.76;64.06;101341.03;5113116;27;45609;-71
2022/10/27 03:20:30;;;;;;;;;2.00;2.00;;;;;17.40;64.35;101276.84;5110575;27;45082;-71
2022/10/27 03:22:55;;;;;;;;;2.00;2.00;;;;;17.71;64.25;101334.69;5119402;27;52684;-71
2022/10/27 03:25:20;;;;;;;;;3.00;3.00;;;;;17.70;64.64;101332.88;5107616;27;45150;-71
2022/10/27 03:27:46;;;;;;;;;5.67;2.00;;;;;17.73;64.36;101332.91;5100708;27;45656;-71
2022/10/27 03:30:14;;;;;;;;;1.67;1.67;;;;;17.73;64.18;101335.59;5110379;27;57303;-71
2022/10/27 03:32:43;;;;;;;;;2.00;2.00;;;;;17.78;64.21;101352.75;5114669;27;45266;-71
2022/10/27 03:35:08;;;;;;;;;1.33;1.33;;;;;17.80;64.00;101342.88;5112203;27;45119;-71
2022/10/27 03:37:34;;;;;;;;;1.67;1.67;;;;;17.80;63.77;101345.56;5107053;27;46016;-71
2022/10/27 03:39:59;;;;;;;;;2.67;2.00;;;;;17.73;64.17;101350.91;5108050;27;45250;-71
2022/10/27 03:42:24;;;;;;;;;5.00;3.00;;;;;17.63;64.13;101340.03;5108725;27;44960;-71
2022/10/27 03:44:50;;;;;;;;;6.00;2.50;;;;;17.58;64.04;101335.50;5110755;27;50088;-71
2022/10/27 03:47:15;;;;;;;;;4.00;3.00;;;;;17.65;64.19;101342.75;5106824;27;60508;-71
2022/10/27 03:49:40;;;;;;;;;3.00;2.00;;;;;17.63;64.15;101345.44;5111290;27;61307;-71
2022/10/27 03:52:05;;;;;;;;;1.00;1.00;;;;;17.57;64.51;101333.69;5105653;27;54143;-71
2022/10/27 03:54:31;;;;;;;;;5.33;1.00;;;;;17.65;64.24;101340.97;5112265;27;45202;-71
2022/10/27 03:56:57;;;;;;;;;2.00;1.33;;;;;17.62;64.50;101345.44;5110724;27;45551;-71
2022/10/27 03:59:23;;;;;;;;;4.67;3.00;;;;;17.61;64.48;101331.03;5110552;27;45073;-71
2022/10/27 04:01:48;;;;;;;;;3.67;2.33;;;;;17.57;64.27;101339.09;5110675;27;45183;-71
2022/10/27 04:04:14;;;;;;;;;4.00;2.67;;;;;17.51;64.54;101334.56;5111311;27;45188;-71
2022/10/27 04:06:39;;;;;;;;;0.33;0.33;;;;;17.35;64.46;101317.31;5110695;27;45769;-71
2022/10/27 04:09:04;;;;;;;;;1.33;1.33;;;;;17.27;64.81;101309.19;5110691;27;45348;-71
2022/10/27 04:11:30;;;;;;;;;2.67;2.67;;;;;17.48;64.40;101345.34;5111991;27;45338;-71
2022/10/27 04:13:55;;;;;;;;;3.33;2.67;;;;;17.52;64.69;101344.47;5106110;27;45546;-71
2022/10/27 04:16:21;;;;;;;;;4.00;2.00;;;;;17.53;64.52;101342.69;5117270;27;47350;-72
2022/10/27 04:18:47;;;;;;;;;3.00;3.00;;;;;17.53;64.56;101348.09;5090401;27;44989;-71
2022/10/27 04:21:13;;;;;;;;;4.67;2.33;;;;;17.49;64.60;101348.06;5102596;27;46550;-71
2022/10/27 04:23:38;;;;;;;;;0.67;0.67;;;;;17.52;64.72;101343.56;5117443;27;45105;-71
2022/10/27 04:26:04;;;;;;;;;2.33;2.33;;;;;17.54;64.72;101347.16;5114879;27;45749;-71
2022/10/27 04:28:29;;;;;;;;;2.00;2.00;;;;;17.49;64.88;101349.88;5114866;27;44969;-72
2022/10/27 04:30:54;;;;;;;;;4.33;3.00;;;;;17.50;64.58;101344.47;5113125;27;45097;-71
2022/10/27 04:33:20;;;;;;;;;3.00;3.00;;;;;17.53;64.28;101337.28;5110203;27;45315;-71
2022/10/27 04:35:45;;;;;;;;;4.00;2.33;;;;;17.49;64.33;101334.56;5112770;27;55754;-71
2022/10/27 04:38:10;;;;;;;;;4.00;3.00;;;;;17.19;64.59;101280.28;5110055;27;45007;-71
2022/10/27 04:40:35;;;;;;;;;2.67;2.67;;;;;17.45;64.70;101323.69;5112383;27;45367;-71
2022/10/27 04:43:01;;;;;;;;;4.00;3.00;;;;;17.45;64.63;101323.69;5113680;27;53894;-71
2022/10/27 04:45:26;;;;;;;;;4.00;3.00;;;;;17.41;65.03;101333.59;5118037;27;49850;-72
2022/10/27 04:47:51;;;;;;;;;4.33;2.67;;;;;17.38;65.13;101321.88;5113509;27;55700;-71
2022/10/27 04:50:17;;;;;;;;;5.00;3.33;;;;;17.39;65.04;101323.66;5113114;27;45860;-71
2022/10/27 04:52:53;;;;;;;;;2.00;2.00;;;;;17.39;65.21;101319.19;5115202;27;45330;-71
2022/10/27 04:55:18;;;;;;;;;2.00;2.00;;;;;17.38;64.82;101320.06;5113748;27;45232;-71
2022/10/27 04:57:44;;;;;;;;;2.33;2.33;;;;;17.38;64.75;101316.47;5114135;27;45146;-71
2022/10/27 05:00:09;;;;;;;;;6.00;4.33;;;;;17.39;65.31;101324.56;5112723;27;58881;-71
2022/10/27 05:02:35;;;;;;;;;4.00;4.00;;;;;17.41;65.04;101325.50;5114924;27;45136;-71
2022/10/27 05:05:02;;;;;;;;;5.00;4.00;;;;;17.41;65.17;101320.09;5106736;27;45986;-71
2022/10/27 05:07:27;;;;;;;;;6.00;3.00;;;;;17.40;64.67;101315.56;5107461;27;45317;-71
2022/10/27 05:09:52;;;;;;;;;5.67;5.67;;;;;17.41;64.95;101330.88;5111986;27;56913;-71
2022/10/27 05:12:17;;;;;;;;;4.00;4.00;;;;;17.43;65.01;101328.19;5114189;27;45422;-72
2022/10/27 05:14:43;;;;;;;;;7.33;3.33;;;;;16.98;64.64;101246.84;5112536;27;46075;-72
2022/10/27 05:17:08;;;;;;;;;8.67;7.67;;;;;17.42;64.63;101323.69;5111716;27;64138;-71
2022/10/27 05:19:33;;;;;;;;;8.00;7.33;;;;;17.42;64.58;101324.59;5119124;27;45103;-72
2022/10/27 05:21:58;;;;;;;;;6.67;6.67;;;;;17.38;64.63;101314.66;5110838;27;44972;-72
2022/10/27 05:24:24;;;;;;;;;6.33;6.33;;;;;17.38;65.02;101313.75;5116575;27;51656;-71
2022/10/27 05:26:49;;;;;;;;;7.67;7.67;;;;;17.30;64.98;101298.38;5115976;27;58455;-71
2022/10/27 05:29:14;;;;;;;;;1.67;1.33;;;;;17.35;64.93;101303.81;5117518;27;54430;-71
2022/10/27 05:31:40;;;;;;;;;7.33;6.00;;;;;17.38;64.64;101309.25;5108925;27;45375;-71
2022/10/27 05:34:05;;;;;;;;;2.67;1.00;;;;;17.25;64.52;101288.44;5116513;27;55881;-71
2022/10/27 05:36:30;;;;;;;;;8.67;6.67;;;;;17.22;65.03;101274.91;5122948;27;45106;-71
2022/10/27 05:38:55;;;;;;;;;5.33;5.00;;;;;17.37;64.58;101307.44;5109219;27;50832;-71
2022/10/27 05:41:21;;;;;;;;;9.00;7.33;;;;;17.35;64.52;101311.03;5107748;27;48843;-71
2022/10/27 05:43:46;;;;;;;;;6.67;5.33;;;;;17.37;64.70;101312.84;5113152;27;61194;-71
2022/10/27 05:46:11;;;;;;;;;5.33;4.67;;;;;17.31;64.69;101302.91;5119166;27;52422;-71
2022/10/27 05:48:37;;;;;;;;;7.67;5.67;;;;;17.35;64.59;101302.94;5110327;27;45041;-72
2022/10/27 05:51:02;;;;;;;;;6.00;6.00;;;;;17.01;64.81;101236.09;5112856;27;55643;-71
2022/10/27 05:53:27;;;;;;;;;23.67;20.67;;;;;17.38;64.43;101309.25;5112647;27;45116;-71
2022/10/27 05:55:53;;;;;;;;;7.33;6.00;;;;;17.38;64.65;101302.97;5111765;27;48255;-72
2022/10/27 05:58:19;;;;;;;;;6.33;2.33;;;;;17.38;65.02;101297.56;5111981;27;45177;-72
2022/10/27 06:00:44;;;;;;;;;6.00;3.00;;;;;17.39;64.63;101294.88;5113769;27;45146;-71
2022/10/27 06:03:28;;;;;;;;;8.00;6.00;;;;;17.37;64.69;101293.03;5112836;27;45439;-72
2022/10/27 06:05:53;;;;;;;;;5.00;5.00;;;;;17.28;64.57;101261.47;5111579;27;45121;-71
2022/10/27 06:08:19;;;;;;;;;6.00;6.00;;;;;17.39;64.59;101273.25;5091778;27;44994;-72
2022/10/27 06:10:45;;;;;;;;;5.67;5.00;;;;;17.39;64.89;101272.34;5091672;27;45180;-72
2022/10/27 06:13:14;;;;;;;;;3.33;3.33;;;;;17.41;65.06;101279.56;5114212;27;45187;-72
2022/10/27 06:15:39;;;;;;;;;8.33;7.00;;;;;17.36;64.39;101261.53;5119843;27;45270;-71
2022/10/27 06:18:05;;;;;;;;;4.00;4.00;;;;;17.45;64.12;101285.88;5109835;27;45231;-72
2022/10/27 06:20:31;;;;;;;;;4.00;4.00;;;;;17.34;64.44;101271.41;5124589;27;45166;-71
2022/10/27 06:22:57;;;;;;;;;4.67;4.67;;;;;17.47;64.31;101293.13;5123044;27;45115;-72
2022/10/27 06:25:22;;;;;;;;;5.33;4.00;;;;;17.40;64.42;101277.75;5115897;27;45128;-72
2022/10/27 06:27:47;;;;;;;;;5.33;3.67;;;;;17.50;64.06;101282.34;5129596;27;45107;-71
2022/10/27 06:30:13;;;;;;;;;8.00;4.33;;;;;17.52;64.43;101276.91;5120290;27;44995;-71
2022/10/27 06:32:39;;;;;;;;;5.33;5.33;;;;;17.48;64.13;101257.09;5112861;27;45674;-71
2022/10/27 06:35:06;;;;;;;;;3.00;3.00;;;;;17.54;63.81;101263.41;5125417;27;45048;-71
2022/10/27 06:37:31;;;;;;;;;3.33;3.33;;;;;17.57;63.78;101264.38;5123706;27;45119;-71
2022/10/27 06:39:56;;;;;;;;;5.67;4.00;;;;;17.58;64.51;101262.56;5127075;27;45197;-71
2022/10/27 06:42:23;;;;;;;;;5.00;4.00;;;;;17.52;63.95;101260.72;5092556;27;46041;-71
2022/10/27 06:44:49;;;;;;;;;5.00;3.33;;;;;17.51;64.10;101258.91;5111348;27;45342;-71
2022/10/27 06:47:14;;;;;;;;;3.67;3.67;;;;;17.47;63.69;101263.41;5109594;27;45553;-71
2022/10/27 06:49:39;;;;;;;;;3.67;3.67;;;;;17.45;64.07;101269.69;5097266;27;45127;-71
2022/10/27 06:52:05;;;;;;;;;3.33;3.33;;;;;17.42;64.05;101267.88;5099254;27;45500;-71
2022/10/27 06:54:30;;;;;;;;;4.33;4.33;;;;;17.28;64.45;101240.75;5104749;27;45524;-71
2022/10/27 06:56:55;;;;;;;;;3.00;3.00;;;;;17.44;64.38;101265.16;5097497;27;45978;-71
2022/10/27 06:59:21;;;;;;;;;6.67;6.67;;;;;17.33;64.41;101245.31;5100740;27;48622;-71
2022/10/27 07:01:46;;;;;;;;;5.67;5.67;;;;;17.25;64.64;101231.75;5088385;27;61511;-71
2022/10/27 07:04:11;;;;;;;;;3.33;3.33;;;;;17.37;64.58;101253.41;5092481;27;45589;-71
2022/10/27 07:06:36;;;;;;;;;5.67;5.67;;;;;17.34;64.56;101256.13;5098432;27;52582;-71
2022/10/27 07:09:02;;;;;;;;;5.00;5.00;;;;;17.40;64.89;101271.44;5097285;27;45475;-71
2022/10/27 07:11:28;;;;;;;;;4.67;4.00;;;;;17.39;64.38;101289.47;5084725;27;45385;-71
2022/10/27 07:13:54;;;;;;;;;5.00;5.00;;;;;17.42;64.61;101285.84;5107730;27;45190;-71
2022/10/27 07:16:19;;;;;;;;;8.00;6.00;;;;;17.47;64.49;101292.19;5119120;27;45242;-71
2022/10/27 07:18:44;;;;;;;;;9.33;6.00;;;;;17.49;64.27;101302.13;5105376;27;49702;-71
2022/10/27 07:21:10;;;;;;;;;7.67;5.00;;;;;17.45;64.37;101303.00;5099392;27;46169;-71
2022/10/27 07:23:35;;;;;;;;;5.00;5.00;;;;;17.48;64.52;101294.91;5095671;27;45615;-71
2022/10/27 07:26:00;;;;;;;;;4.67;2.00;;;;;17.55;64.48;101300.38;5102719;27;55477;-71
2022/10/27 07:28:26;;;;;;;;;8.00;5.00;;;;;17.54;64.37;101295.84;5111269;27;52331;-71
2022/10/27 07:30:54;;;;;;;;;6.33;5.00;;;;;17.58;64.26;101300.38;5091203;27;45487;-71
2022/10/27 07:33:19;;;;;;;;;8.67;5.67;;;;;17.69;64.21;101331.09;5103709;27;45405;-71
2022/10/27 07:35:49;;;;;;;;;5.67;5.67;;;;;17.73;64.17;101335.59;5101723;27;45367;-71
2022/10/27 07:38:15;;;;;;;;;20.33;8.00;;;;;17.75;63.56;101336.53;5092587;27;45351;-71
2022/10/27 07:40:40;;;;;;;;;6.00;6.00;;;;;17.72;63.33;101322.06;5098288;27;46566;-71
2022/10/27 07:43:05;;;;;;;;;10.33;6.00;;;;;17.81;63.25;101335.66;5095852;27;45590;-71
2022/10/27 07:45:32;;;;;;;;;10.67;9.00;;;;;17.83;63.45;101332.06;5098975;27;45418;-72
2022/10/27 07:47:57;;;;;;;;;5.33;5.00;;;;;17.84;63.33;101339.28;5110893;27;45509;-71
2022/10/27 07:50:28;;;;;;;;;7.67;7.67;;;;;17.71;63.63;101310.38;5102684;27;46093;-71
2022/10/27 07:52:53;;;;;;;;;7.33;6.67;;;;;17.90;63.20;101338.47;5113792;27;45743;-71
2022/10/27 07:55:21;;;;;;;;;6.00;5.33;;;;;17.88;63.18;101333.94;5110167;27;45436;-71
2022/10/27 07:57:46;;;;;;;;;6.67;4.00;;;;;17.91;63.28;101342.06;5092560;27;45538;-71
2022/10/27 08:00:16;;;;;;;;;12.33;10.33;;;;;17.94;62.45;101331.28;5096540;27;45550;-72
2022/10/27 08:02:43;;;;;;;;;6.00;6.00;;;;;17.94;62.96;101323.16;5102059;27;45467;-71
2022/10/27 08:05:09;;;;;;;;;12.00;9.33;;;;;17.95;63.02;101320.47;5106998;27;45697;-71
2022/10/27 08:07:35;;;;;;;;;6.67;5.67;;;;;17.93;62.72;101305.13;5110231;27;45508;-71
2022/10/27 08:10:00;;;;;;;;;10.67;9.67;;;;;17.90;62.81;101311.44;5098025;27;46701;-72
2022/10/27 08:12:26;;;;;;;;;8.00;8.00;;;;;18.13;62.77;101340.34;5092095;27;59736;-72
2022/10/27 08:14:52;;;;;;;;;6.33;5.33;;;;;18.11;62.54;101332.22;5097607;27;48393;-71
2022/10/27 08:17:17;;;;;;;;;5.67;5.67;;;;;18.08;62.45;101332.22;5077350;27;45604;-71
2022/10/27 08:19:42;;;;;;;;;7.33;5.00;;;;;18.06;62.42;101328.59;5094424;27;46220;-71
2022/10/27 08:22:08;;;;;;;;;6.67;6.67;;;;;18.01;62.82;101322.28;5098551;27;45418;-71
2022/10/27 08:24:33;;;;;;;;;7.33;4.33;;;;;18.08;62.65;101342.13;5117303;27;45437;-71
2022/10/27 08:26:59;;;;;;;;;8.00;5.67;;;;;18.09;62.56;101333.16;5099783;27;45466;-71
2022/10/27 08:29:25;;;;;;;;;6.00;6.00;;;;;18.03;62.78;101324.13;5104572;27;45686;-71
2022/10/27 08:31:50;;;;;;;;;9.00;6.00;;;;;18.16;62.29;101337.66;5077650;27;45961;-71
2022/10/27 08:34:16;;;;;;;;;11.67;8.33;;;;;18.17;62.48;101348.50;5096034;27;45619;-71
2022/10/27 08:36:41;;;;;;;;;13.67;9.00;;;;;18.20;62.59;101345.81;5112752;27;45503;-72
2022/10/27 08:39:10;;;;;;;;;9.67;5.67;;;;;18.24;62.42;101352.13;5101739;27;50971;-71
2022/10/27 08:41:54;;;;;;;;;8.67;7.33;;;;;17.98;62.46;101303.34;5110420;27;45499;-71
2022/10/27 08:44:45;;;;;;;;;7.67;7.67;;;;;18.34;62.45;101353.09;5097779;27;45436;-72
2022/10/27 08:47:19;;;;;;;;;11.00;11.00;;;;;18.37;62.23;101355.81;5101999;27;45597;-72
2022/10/27 08:49:50;;;;;;;;;5.67;5.00;;;;;18.38;62.25;101361.22;5096707;27;45561;-72
2022/10/27 08:52:42;;;;;;;;;9.00;6.33;;;;;18.41;62.22;101358.53;5113243;27;45511;-72
2022/10/27 08:55:14;;;;;;;;;10.00;8.67;;;;;18.42;62.09;101363.03;5107420;27;45617;-71
2022/10/27 08:57:49;;;;;;;;;10.33;8.33;;;;;18.37;62.23;101353.09;5080854;27;45674;-71
2022/10/27 09:00:14;;;;;;;;;7.00;6.00;;;;;18.13;61.90;101316.94;5094817;27;46532;-72
2022/10/27 09:02:55;;;;;;;;;7.33;2.67;;;;;18.47;62.00;101371.16;5094346;27;45469;-72
2022/10/27 09:05:30;;;;;;;;;10.00;7.33;;;;;18.52;61.75;101360.38;5087972;27;45632;-72
2022/10/27 09:08:06;;;;;;;;;9.33;7.00;;;;;18.54;62.00;101369.38;5092894;27;45474;-73
2022/10/27 09:10:48;;;;;;;;;6.33;5.00;;;;;18.49;62.32;101366.66;5086718;27;45925;-73
2022/10/27 09:13:35;;;;;;;;;17.00;11.33;;;;;18.62;61.72;101380.25;5110427;27;45348;-71
2022/10/27 09:16:04;;;;;;;;;8.33;6.00;;;;;18.56;61.84;101354.06;5107858;27;45172;-72
2022/10/27 09:18:40;;;;;;;;;15.33;10.67;;;;;18.67;61.81;101370.34;5116049;27;45035;-72
2022/10/27 09:21:14;;;;;;;;;7.67;6.33;;;;;18.70;61.76;101371.25;5106241;27;45646;-73
2022/10/27 09:23:45;;;;;;;;;9.00;5.00;;;;;18.67;61.55;101364.91;5113409;27;45237;-72
2022/10/27 09:26:15;;;;;;;;;65.25;50.25;;;;;18.69;61.50;101357.69;5115826;27;45187;-73
2022/10/27 09:28:46;;;;;;;;;15.67;13.33;;;;;18.83;61.67;101380.34;5115830;27;44921;-72
2022/10/27 09:31:26;;;;;;;;;10.67;7.00;;;;;18.86;61.26;101376.72;5092530;27;45616;-72
2022/10/27 09:33:59;;;;;;;;;12.67;9.67;;;;;18.91;61.49;101383.06;5110735;27;45059;-72
2022/10/27 09:36:24;;;;;;;;;15.00;10.33;;;;;18.98;61.27;101394.81;5107751;27;45176;-72
2022/10/27 09:38:49;;;;;;;;;9.00;5.67;;;;;18.82;60.84;101354.13;5118322;27;45225;-73
2022/10/27 09:41:15;;;;;;;;;15.33;9.67;;;;;19.03;61.25;101391.22;5110569;27;47628;-72
2022/10/27 09:43:40;;;;;;;;;9.33;7.33;;;;;19.06;61.13;101384.91;5116815;27;45170;-72
2022/10/27 09:46:16;;;;;;;;;7.00;7.00;;;;;19.09;60.95;101374.97;5109764;27;44919;-73
2022/10/27 09:48:41;;;;;;;;;14.00;9.00;;;;;19.15;60.84;101369.56;5111096;27;45071;-73
2022/10/27 09:51:25;;;;;;;;;16.33;10.00;;;;;19.31;60.35;101381.31;5101112;27;45725;-72
2022/10/27 09:53:52;;;;;;;;;15.67;11.00;;;;;19.32;60.28;101380.41;5105179;27;45326;-72
2022/10/27 09:56:25;;;;;;;;;17.33;13.33;;;;;19.46;60.12;101365.94;5110547;27;45204;-72
2022/10/27 09:58:59;;;;;;;;;15.67;10.33;;;;;19.51;60.27;101364.13;5106792;27;44909;-72
2022/10/27 10:01:27;;;;;;;;;22.33;18.00;;;;;19.58;59.98;101349.66;5077426;27;46055;-72
2022/10/27 10:04:13;;;;;;;;;9.67;8.33;;;;;19.68;59.55;101351.47;5111273;27;45233;-71
2022/10/27 10:06:39;;;;;;;;;12.67;9.67;;;;;19.75;59.59;101359.59;5094500;27;45216;-72
2022/10/27 10:09:20;;;;;;;;;10.00;8.33;;;;;19.83;59.10;101353.31;5094335;27;45494;-72
2022/10/27 10:11:45;;;;;;;;;17.67;11.33;;;;;19.91;58.64;101355.97;5087684;27;46317;-73
2022/10/27 10:14:22;;;;;;;;;11.33;9.33;;;;;19.94;58.39;101374.06;5091777;27;45246;-72
2022/10/27 10:16:48;;;;;;;;;16.00;11.33;;;;;19.85;58.47;101348.78;5085123;27;45731;-72
2022/10/27 10:19:21;;;;;;;;;9.67;8.67;;;;;20.03;58.39;101365.91;5097324;27;45392;-72
2022/10/27 10:21:57;;;;;;;;;9.67;9.67;;;;;20.09;58.55;101367.69;5096793;27;46337;-72
2022/10/27 10:24:27;;;;;;;;;22.67;18.67;;;;;20.13;58.47;101359.53;5107576;27;45224;-72
2022/10/27 10:26:58;;;;;;;;;17.33;14.00;;;;;20.19;58.36;101364.03;5090122;27;45006;-73
2022/10/27 10:29:31;;;;;;;;;15.33;12.67;;;;;20.24;58.40;101363.13;5113441;27;45017;-73
2022/10/27 10:32:13;;;;;;;;;14.00;11.67;;;;;20.28;58.57;101366.72;5108045;27;46321;-72
2022/10/27 10:34:41;;;;;;;;;8.00;6.67;;;;;20.27;58.35;101358.59;5106331;27;45147;-73
2022/10/27 10:37:31;;;;;;;;;16.33;12.00;;;;;20.29;57.97;101351.34;5104000;27;45549;-73
2022/10/27 10:40:17;;;;;;;;;14.33;12.00;;;;;20.32;57.62;101351.31;5094619;27;45328;-73
2022/10/27 10:42:44;;;;;;;;;22.33;20.33;;;;;20.45;57.59;101363.94;5108935;27;45292;-72
2022/10/27 10:45:25;;;;;;;;;16.00;13.33;;;;;20.56;57.25;101377.47;5110612;27;44996;-72
2022/10/27 10:47:58;;;;;;;;;13.33;13.33;;;;;20.60;57.29;101374.69;5111681;27;45258;-72
2022/10/27 10:50:24;;;;;;;;;10.33;10.33;;;;;20.63;56.76;101362.97;5105995;27;45732;-72
2022/10/27 10:52:56;;;;;;;;;12.67;10.00;;;;;20.72;56.56;101376.50;5107847;27;46095;-72
2022/10/27 10:55:27;;;;;;;;;11.33;10.67;;;;;20.61;56.25;101341.22;5111113;27;45118;-72
2022/10/27 10:57:55;;;;;;;;;14.00;13.00;;;;;20.70;56.23;101348.44;5111772;27;45170;-72
2022/10/27 11:00:21;;;;;;;;;20.67;17.00;;;;;20.76;56.08;101347.53;5105662;27;45109;-72
2022/10/27 11:02:55;;;;;;;;;23.67;15.33;;;;;20.80;56.11;101361.06;5117906;27;46345;-72
2022/10/27 11:05:27;;;;;;;;;16.33;14.33;;;;;20.86;55.97;101362.84;5108384;27;45064;-72
2022/10/27 11:07:53;;;;;;;;;15.00;12.33;;;;;20.93;55.82;101370.03;5109088;27;45284;-72
2022/10/27 11:10:26;;;;;;;;;8.00;7.00;;;;;20.98;55.82;101361.84;5107898;27;45286;-73
2022/10/27 11:12:58;;;;;;;;;13.00;11.33;;;;;21.06;55.85;101361.81;5108438;27;45135;-72
2022/10/27 11:15:34;;;;;;;;;16.00;13.00;;;;;21.13;55.59;101374.41;5098844;27;45027;-72
2022/10/27 11:18:15;;;;;;;;;17.33;14.67;;;;;21.13;55.68;101342.72;5110343;27;45162;-72
2022/10/27 11:20:43;;;;;;;;;13.00;8.33;;;;;21.27;55.10;101344.44;5113431;27;45010;-72
2022/10/27 11:23:16;;;;;;;;;18.33;11.33;;;;;21.32;55.36;101342.59;5116260;27;46151;-72
2022/10/27 11:25:44;;;;;;;;;17.33;11.33;;;;;21.35;54.90;101342.56;5114957;27;45141;-72
2022/10/27 11:28:28;;;;;;;;;21.00;17.00;;;;;21.43;55.07;101337.03;5119051;27;45311;-72